LST weather

Launceston Airport
Launceston, Tasmania, Australia

Public forecast

Using degrees Celsius for public forecast. Weather courtesy of forecast.io.

METAR (pilot weather report)

Retrieved 2018/04/24 06:30 UTC (0 seconds ago):

YMLT 240630Z AUTO 36012KT 9999 -SHRA SCT067 BKN100 BKN115 16/14 Q1011

TAF (pilot weather forecast)

Forecast is more than 6 hours old.

Retrieved 2018/04/23 18:36 UTC (12 hours ago):

TAF YMLT 231708Z 2318/2418 VRB03KT 0300 FG BKN004 BECMG 2322/2400 33010KT 9999 SCT014 FM240300 33014KT CAVOK FM241000 33008KT 9999 BKN010